(°C)
27°
27°
27°
28°
28°
29°
29°
(°C)
25°
26°
26°
26°
27°
27°
27°
ЗЮЗ
З
З
З
З
ЗСЗ
ЗСЗ
(km/h)
7-17
7-18
8-18
9-19
7-17
6-15
4-14
(mm)
0
0
0
0
0
0
0
(%)
30
20
11
2
5
9
13

Издигане на слънцето

/ 59.5°
sun-icon
UV 7
06:15
20:25
Намаляващ полумесец (291°)
03:15
15:03

METAR за Южна Каролина (KCUB)

Час Условия Температура/
Точка на оросяване
Вятър Видимост Времето Облаци Налягане Промяна Сурови
VFR 25.6°C / 19.4°C variable 3kt >10km - Scattered Clouds 2100ft 1018 - KCUB 241453Z AUTO VRB03KT 10SM SCT021 26/19 A3010 RMK AO2 SLP189 T02560194 51007
VFR 23.9°C / 20°C 220º 4kt >10km - Scattered Clouds 1400ft 1018 - KCUB 241353Z AUTO 22004KT 9SM SCT014 24/20 A3009 RMK AO2 SLP188 T02390200
VFR 22.2°C / 20.6°C 210º 5kt >10km - Few Clouds 800ft 1018 - KCUB 241253Z AUTO 21005KT 8SM FEW008 22/21 A3009 RMK AO2 SLP186 T02220206
IFR 21.7°C / 20°C variable 0kt >10km - Broken Clouds 800ft 1018 - KCUB 241153Z AUTO 00000KT 7SM BKN008 22/20 A3008 RMK AO2 CIG 006V011 SLP182 70036 T02170200 10217 20206 53012
IFR 21.1°C / 20°C 180º 4kt >10km - Overcast 900ft 1017 - KCUB 241053Z AUTO 18004KT 8SM OVC009 21/20 A3006 RMK AO2 SLP177 T02110200
IFR 21.1°C / 20°C 180º 4kt >10km - Overcast 800ft 1017 - KCUB 240953Z AUTO 18004KT 9SM OVC008 21/20 A3005 RMK AO2 SLP173 T02110200
IFR 21.1°C / 19.4°C 170º 4kt >10km - Overcast 700ft 1017 - KCUB 240853Z AUTO 17004KT 10SM OVC007 21/19 A3004 RMK AO2 SLP171 T02110194 55002
IFR 21.1°C / 19.4°C variable 0kt >10km - Overcast 800ft 1017 - KCUB 240753Z AUTO 00000KT 10SM OVC008 21/19 A3004 RMK AO2 SLP170 T02110194
IFR 21.1°C / 19.4°C 180º 3kt >10km - Overcast 900ft - KCUB 240731Z AUTO 18003KT 10SM OVC009 21/19 A3004 RMK AO2 T02110194
MVFR 20.6°C / 19.4°C 170º 5kt >10km - Overcast 1100ft 1017 - KCUB 240653Z AUTO 17005KT 10SM OVC011 21/19 A3004 RMK AO2 SLP171 T02060194
MVFR 21.1°C / 19.4°C 170º 3kt >10km - Broken Clouds 1100ft
Overcast 12000ft
- KCUB 240634Z AUTO 17003KT 10SM BKN011 OVC120 21/19 A3005 RMK AO2 T02110194
VFR 21.1°C / 19.4°C 180º 3kt >10km - Scattered Clouds 11000ft 1017 - KCUB 240553Z AUTO 18003KT 10SM SCT110 21/19 A3005 RMK AO2 SLP173 60005 T02110194 10222 20206 55003
VFR 21.1°C / 19.4°C 190º 5kt >10km - Broken Clouds 11000ft 1017 - KCUB 240453Z AUTO 19005KT 10SM BKN110 21/19 A3005 RMK AO2 SLP173 T02110194 402890206
VFR 21.1°C / 18.9°C 170º 4kt >10km - Clear 1017 - KCUB 240353Z AUTO 17004KT 10SM CLR 21/19 A3004 RMK AO2 SLP171 T02110189
VFR 21.1°C / 19.4°C variable 0kt >10km - Clear 1017 - KCUB 240253Z AUTO 00000KT 10SM CLR 21/19 A3006 RMK AO2 SLP176 60005 T02110194 58002
VFR 20.6°C / 19.4°C 160º 6kt >10km 0.51mm precipitation Clear 1017 - KCUB 240153Z AUTO 16006KT 10SM CLR 21/19 A3007 RMK AO2 SLP179 P0002 T02060194
VFR 21.1°C / 18.9°C 160º 9kt >10km 0.76mm precipitation Scattered Clouds 5500ft
Broken Clouds 7000ft
Broken Clouds 9000ft
1018 - KCUB 240053Z AUTO 16009KT 10SM SCT055 BKN070 BKN090 21/19 A3007 RMK AO2 RAE04B30E43 SLP182 P0003 T02110189
VFR 21.1°C / 19.4°C 160º 8kt >10km Light Rain 2.03mm precipitation Scattered Clouds 11000ft 1017 - KCUB 232353Z AUTO 16008KT 10SM -RA SCT110 21/19 A3006 RMK AO2 PK WND 20027/2257 LTG DSNT E AND SE SLP178 P0008 60019 T02110194 10289 20211 50018
MVFR 21.7°C / 19.4°C 190º 6kt 4800m Rain Mist 1.27mm precipitation Scattered Clouds 8500ft
Broken Clouds 11000ft
- KCUB 232325Z AUTO 19006KT 3SM RA BR SCT085 BKN110 22/19 A3007 RMK AO2 PK WND 20027/2257 LTG DSNT NE-SE P0005 T02170194
IFR 21.7°C / 20°C 200º 11kt Gust 20kt 3200m in the Vicinity Thunderstorm Rain Mist 0.76mm precipitation Scattered Clouds 1600ft
Broken Clouds 5000ft
Overcast 11000ft
- KCUB 232307Z AUTO 20011G20KT 2SM VCTS RA BR SCT016 BKN050 OVC110 22/20 A3008 RMK AO2 PK WND 20027/2257 LTG DSNT NE-S P0003 T02170200
MVFR 22.2°C / 20°C 200º 14kt Gust 28kt 4800m in the Vicinity Thunderstorm Rain Mist 2.79mm precipitation Broken Clouds 1700ft
Broken Clouds 3300ft
Overcast 4700ft
1017 - KCUB 232253Z AUTO 20014G28KT 3SM VCTS RA BR BKN017 BKN033 OVC047 22/20 A3007 RMK AO2 PK WND 19028/2249 LTG DSNT SE-SW RAB12 SLP179 P0011 T02220200
IFR 25°C / 21.7°C 180º 7kt 4000m in the Vicinity Thunderstorm Rain 0.76mm precipitation Scattered Clouds 3700ft
Broken Clouds 5000ft
Overcast 10000ft
- KCUB 232233Z AUTO 18007KT 2 1/2SM VCTS RA SCT037 BKN050 OVC100 25/22 A3004 RMK AO2 LTG DSNT ALQDS RAB12 P0003 T02500217
VFR 27.2°C / 20.6°C 190º 5kt >10km - Few Clouds 5000ft
Scattered Clouds 11000ft
1016 - KCUB 232153Z AUTO 19005KT 10SM FEW050 SCT110 27/21 A3002 RMK AO2 LTG DSNT W AND NW SLP162 T02720206
VFR 28.9°C / 21.1°C variable 4kt >10km - Few Clouds 5500ft 1016 - KCUB 232053Z AUTO VRB04KT 10SM FEW055 29/21 A3001 RMK AO2 SLP160 T02890211 58036

VFR

25.6°C / 19.4°C

[Още]
Вятър variable 3kt
Видимост >10km
Времето -
Облаци Scattered Clouds 2100ft
Налягане 1018
Промяна -
Сурови KCUB 241453Z AUTO VRB03KT 10SM SCT021 26/19 A3010 RMK AO2 SLP189 T02560194 51007

VFR

23.9°C / 20°C

[Още]
Вятър 220º 4kt
Видимост >10km
Времето -
Облаци Scattered Clouds 1400ft
Налягане 1018
Промяна -
Сурови KCUB 241353Z AUTO 22004KT 9SM SCT014 24/20 A3009 RMK AO2 SLP188 T02390200

VFR

22.2°C / 20.6°C

[Още]
Вятър 210º 5kt
Видимост >10km
Времето -
Облаци Few Clouds 800ft
Налягане 1018
Промяна -
Сурови KCUB 241253Z AUTO 21005KT 8SM FEW008 22/21 A3009 RMK AO2 SLP186 T02220206

IFR

21.7°C / 20°C

[Още]
Вятър variable 0kt
Видимост >10km
Времето -
Облаци Broken Clouds 800ft
Налягане 1018
Промяна -
Сурови KCUB 241153Z AUTO 00000KT 7SM BKN008 22/20 A3008 RMK AO2 CIG 006V011 SLP182 70036 T02170200 10217 20206 53012

IFR

21.1°C / 20°C

[Още]
Вятър 180º 4kt
Видимост >10km
Времето -
Облаци Overcast 900ft
Налягане 1017
Промяна -
Сурови KCUB 241053Z AUTO 18004KT 8SM OVC009 21/20 A3006 RMK AO2 SLP177 T02110200

IFR

21.1°C / 20°C

[Още]
Вятър 180º 4kt
Видимост >10km
Времето -
Облаци Overcast 800ft
Налягане 1017
Промяна -
Сурови KCUB 240953Z AUTO 18004KT 9SM OVC008 21/20 A3005 RMK AO2 SLP173 T02110200

IFR

21.1°C / 19.4°C

[Още]
Вятър 170º 4kt
Видимост >10km
Времето -
Облаци Overcast 700ft
Налягане 1017
Промяна -
Сурови KCUB 240853Z AUTO 17004KT 10SM OVC007 21/19 A3004 RMK AO2 SLP171 T02110194 55002

IFR

21.1°C / 19.4°C

[Още]
Вятър variable 0kt
Видимост >10km
Времето -
Облаци Overcast 800ft
Налягане 1017
Промяна -
Сурови KCUB 240753Z AUTO 00000KT 10SM OVC008 21/19 A3004 RMK AO2 SLP170 T02110194

IFR

21.1°C / 19.4°C

[Още]
Вятър 180º 3kt
Видимост >10km
Времето -
Облаци Overcast 900ft
Налягане
Промяна -
Сурови KCUB 240731Z AUTO 18003KT 10SM OVC009 21/19 A3004 RMK AO2 T02110194

MVFR

20.6°C / 19.4°C

[Още]
Вятър 170º 5kt
Видимост >10km
Времето -
Облаци Overcast 1100ft
Налягане 1017
Промяна -
Сурови KCUB 240653Z AUTO 17005KT 10SM OVC011 21/19 A3004 RMK AO2 SLP171 T02060194

MVFR

21.1°C / 19.4°C

[Още]
Вятър 170º 3kt
Видимост >10km
Времето -
Облаци Broken Clouds 1100ft
Overcast 12000ft
Налягане
Промяна -
Сурови KCUB 240634Z AUTO 17003KT 10SM BKN011 OVC120 21/19 A3005 RMK AO2 T02110194

VFR

21.1°C / 19.4°C

[Още]
Вятър 180º 3kt
Видимост >10km
Времето -
Облаци Scattered Clouds 11000ft
Налягане 1017
Промяна -
Сурови KCUB 240553Z AUTO 18003KT 10SM SCT110 21/19 A3005 RMK AO2 SLP173 60005 T02110194 10222 20206 55003

VFR

21.1°C / 19.4°C

[Още]
Вятър 190º 5kt
Видимост >10km
Времето -
Облаци Broken Clouds 11000ft
Налягане 1017
Промяна -
Сурови KCUB 240453Z AUTO 19005KT 10SM BKN110 21/19 A3005 RMK AO2 SLP173 T02110194 402890206

VFR

21.1°C / 18.9°C

[Още]
Вятър 170º 4kt
Видимост >10km
Времето -
Облаци Clear
Налягане 1017
Промяна -
Сурови KCUB 240353Z AUTO 17004KT 10SM CLR 21/19 A3004 RMK AO2 SLP171 T02110189

VFR

21.1°C / 19.4°C

[Още]
Вятър variable 0kt
Видимост >10km
Времето -
Облаци Clear
Налягане 1017
Промяна -
Сурови KCUB 240253Z AUTO 00000KT 10SM CLR 21/19 A3006 RMK AO2 SLP176 60005 T02110194 58002

VFR

20.6°C / 19.4°C

[Още]
Вятър 160º 6kt
Видимост >10km
Времето 0.51mm precipitation
Облаци Clear
Налягане 1017
Промяна -
Сурови KCUB 240153Z AUTO 16006KT 10SM CLR 21/19 A3007 RMK AO2 SLP179 P0002 T02060194

VFR

21.1°C / 18.9°C

[Още]
Вятър 160º 9kt
Видимост >10km
Времето 0.76mm precipitation
Облаци Scattered Clouds 5500ft
Broken Clouds 7000ft
Broken Clouds 9000ft
Налягане 1018
Промяна -
Сурови KCUB 240053Z AUTO 16009KT 10SM SCT055 BKN070 BKN090 21/19 A3007 RMK AO2 RAE04B30E43 SLP182 P0003 T02110189

VFR

21.1°C / 19.4°C

[Още]
Вятър 160º 8kt
Видимост >10km
Времето Light Rain 2.03mm precipitation
Облаци Scattered Clouds 11000ft
Налягане 1017
Промяна -
Сурови KCUB 232353Z AUTO 16008KT 10SM -RA SCT110 21/19 A3006 RMK AO2 PK WND 20027/2257 LTG DSNT E AND SE SLP178 P0008 60019 T02110194 10289 20211 50018

MVFR

21.7°C / 19.4°C

[Още]
Вятър 190º 6kt
Видимост 4800m
Времето Rain Mist 1.27mm precipitation
Облаци Scattered Clouds 8500ft
Broken Clouds 11000ft
Налягане
Промяна -
Сурови KCUB 232325Z AUTO 19006KT 3SM RA BR SCT085 BKN110 22/19 A3007 RMK AO2 PK WND 20027/2257 LTG DSNT NE-SE P0005 T02170194

IFR

21.7°C / 20°C

[Още]
Вятър 200º 11kt Gust 20kt
Видимост 3200m
Времето in the Vicinity Thunderstorm Rain Mist 0.76mm precipitation
Облаци Scattered Clouds 1600ft
Broken Clouds 5000ft
Overcast 11000ft
Налягане
Промяна -
Сурови KCUB 232307Z AUTO 20011G20KT 2SM VCTS RA BR SCT016 BKN050 OVC110 22/20 A3008 RMK AO2 PK WND 20027/2257 LTG DSNT NE-S P0003 T02170200

MVFR

22.2°C / 20°C

[Още]
Вятър 200º 14kt Gust 28kt
Видимост 4800m
Времето in the Vicinity Thunderstorm Rain Mist 2.79mm precipitation
Облаци Broken Clouds 1700ft
Broken Clouds 3300ft
Overcast 4700ft
Налягане 1017
Промяна -
Сурови KCUB 232253Z AUTO 20014G28KT 3SM VCTS RA BR BKN017 BKN033 OVC047 22/20 A3007 RMK AO2 PK WND 19028/2249 LTG DSNT SE-SW RAB12 SLP179 P0011 T02220200

IFR

25°C / 21.7°C

[Още]
Вятър 180º 7kt
Видимост 4000m
Времето in the Vicinity Thunderstorm Rain 0.76mm precipitation
Облаци Scattered Clouds 3700ft
Broken Clouds 5000ft
Overcast 10000ft
Налягане
Промяна -
Сурови KCUB 232233Z AUTO 18007KT 2 1/2SM VCTS RA SCT037 BKN050 OVC100 25/22 A3004 RMK AO2 LTG DSNT ALQDS RAB12 P0003 T02500217

VFR

27.2°C / 20.6°C

[Още]
Вятър 190º 5kt
Видимост >10km
Времето -
Облаци Few Clouds 5000ft
Scattered Clouds 11000ft
Налягане 1016
Промяна -
Сурови KCUB 232153Z AUTO 19005KT 10SM FEW050 SCT110 27/21 A3002 RMK AO2 LTG DSNT W AND NW SLP162 T02720206

VFR

28.9°C / 21.1°C

[Още]
Вятър variable 4kt
Видимост >10km
Времето -
Облаци Few Clouds 5500ft
Налягане 1016
Промяна -
Сурови KCUB 232053Z AUTO VRB04KT 10SM FEW055 29/21 A3001 RMK AO2 SLP160 T02890211 58036

TAF за Южна Каролина (KCUB)

From till


From till Wind 230º 7kt. Visibility 10km or more. Broken Clouds 3500ft.
From till Wind 260º 6kt. Visibility 10km or more. in the Vicinity Showers . Scattered Clouds 5000ft. Broken Clouds 10000ft.
From till Wind 60º 7kt. Visibility 10km or more. Scattered Clouds 1500ft. Broken Clouds 4000ft.
From till Wind 50º 7kt. Visibility 10km or more. Scattered Clouds 700ft. Broken Clouds 1500ft.

Сурови: KCUB 241439Z 2415/2512 23007KT P6SM BKN035 FM242300 26006KT P6SM VCSH SCT050 BKN100 FM250200 06007KT P6SM SCT015 BKN040 FM250600 05007KT P6SM SCT007 BKN015

Радар и валежи в момента за Южна Каролина

Ситен дъжд
Лек
Умерен
Тежък
Много тежък
Аве

Маркерът за локация обозначава Южна Каролина. Анимацията показва Радара за валежи за последния час, както и прогноза за 1h. Дъждът или лекият сняг може да са невидими за радара. Интензивността на валежите е обозначена с цветни кодове, вариращи от светлосиньо до оранжево.

Актуални сателитни изображения за Южна Каролина, САЩ

Маркерът за локация е поставен върху Южна Каролина. [Още]

Сателитното изображение в реално време съчетава видимата светлина през деня с инфрачервеното лъчение през нощта. През нощта изображението не е тъмно, тъй като инфрачервеното лъчение може да открива температурни разлики. За съжаление ниските облаци и мъглата са трудни за разграничаване от температурите на земята и затова могат да бъдат почти невидими през нощта. Сателитните изображения на Meteosat за Европа се актуализират в реално време на всеки 5 минути. Изображенията GOES-16/GOES-17 (Северна и Южна Америка) и Химавари (Азия) се актуализират на всеки 10 минути.

Върнете се в началото